Delta State University, Mississippi
Current Conditions -  °F | °C
As of 11:15 AM on Thursday 18 Dec 2014 (Local Time) from KRNV Reporting Station
Overcast Overcast  
Wind Chill: 44°   Ceiling: 3300
Heat Index: 46°   Visibility: 10mi
Dew Point: 43°   Wind: 5mph
Humidity: 89%   Direction: 110°ESE
Pressure: 30.22"   Gusts: NA
Location:  33.7453°N, 90.733°W
Report Text: KRNV 181715Z AUTO 11004KT 10SM BKN033 OVC040 08/06 A3022 RMK AO2 T00770060
Loading
Personal Weather Stations






























Interactive Weather Map New forecast layout! Learn more

10-Day Weather Forecast

Advertisements
Track Severe Weather on mobile